sensor_id;sensor_type;location;lat;lon;timestamp;temperature;humidity
13470;DHT22;6807;48.682;9.032;2022-08-19T00:00:31;19.30;99.90
13470;DHT22;6807;48.682;9.032;2022-08-19T00:02:57;19.30;99.90
13470;DHT22;6807;48.682;9.032;2022-08-19T00:05:24;19.30;99.90
13470;DHT22;6807;48.682;9.032;2022-08-19T00:07:53;19.30;99.90
13470;DHT22;6807;48.682;9.032;2022-08-19T00:10:20;19.30;99.90
13470;DHT22;6807;48.682;9.032;2022-08-19T00:12:48;19.40;99.90
13470;DHT22;6807;48.682;9.032;2022-08-19T00:15:16;19.30;99.90
13470;DHT22;6807;48.682;9.032;2022-08-19T00:17:45;19.30;99.90
13470;DHT22;6807;48.682;9.032;2022-08-19T00:20:16;19.30;99.90
13470;DHT22;6807;48.682;9.032;2022-08-19T00:22:44;19.30;99.90
13470;DHT22;6807;48.682;9.032;2022-08-19T00:25:12;19.30;99.90
13470;DHT22;6807;48.682;9.032;2022-08-19T00:27:39;19.30;99.90
13470;DHT22;6807;48.682;9.032;2022-08-19T00:30:07;19.30;99.90
13470;DHT22;6807;48.682;9.032;2022-08-19T00:32:34;19.30;99.90
13470;DHT22;6807;48.682;9.032;2022-08-19T00:35:02;19.40;99.90
13470;DHT22;6807;48.682;9.032;2022-08-19T00:37:29;19.30;99.90
13470;DHT22;6807;48.682;9.032;2022-08-19T00:39:56;19.30;99.90
13470;DHT22;6807;48.682;9.032;2022-08-19T00:42:24;19.30;99.90
13470;DHT22;6807;48.682;9.032;2022-08-19T00:44:54;19.30;99.90
13470;DHT22;6807;48.682;9.032;2022-08-19T00:47:21;19.20;99.90
13470;DHT22;6807;48.682;9.032;2022-08-19T00:49:50;19.20;99.90
13470;DHT22;6807;48.682;9.032;2022-08-19T00:52:19;19.20;99.90
13470;DHT22;6807;48.682;9.032;2022-08-19T00:54:48;19.20;99.90
13470;DHT22;6807;48.682;9.032;2022-08-19T00:57:17;19.20;99.90
13470;DHT22;6807;48.682;9.032;2022-08-19T00:59:48;19.20;99.90
13470;DHT22;6807;48.682;9.032;2022-08-19T01:02:18;19.20;99.90
13470;DHT22;6807;48.682;9.032;2022-08-19T01:04:45;19.20;99.90
13470;DHT22;6807;48.682;9.032;2022-08-19T01:07:12;19.20;99.90
13470;DHT22;6807;48.682;9.032;2022-08-19T01:09:39;19.20;99.90
13470;DHT22;6807;48.682;9.032;2022-08-19T01:12:07;19.10;99.90
13470;DHT22;6807;48.682;9.032;2022-08-19T01:14:35;19.10;99.90
13470;DHT22;6807;48.682;9.032;2022-08-19T01:17:05;19.10;99.90
13470;DHT22;6807;48.682;9.032;2022-08-19T01:19:35;19.10;99.90
13470;DHT22;6807;48.682;9.032;2022-08-19T01:22:07;19.10;99.90
13470;DHT22;6807;48.682;9.032;2022-08-19T01:24:36;19.10;99.90
13470;DHT22;6807;48.682;9.032;2022-08-19T01:27:04;19.10;99.90
13470;DHT22;6807;48.682;9.032;2022-08-19T01:29:31;19.10;99.90
13470;DHT22;6807;48.682;9.032;2022-08-19T01:31:58;19.10;99.90
13470;DHT22;6807;48.682;9.032;2022-08-19T01:34:27;19.10;99.90
13470;DHT22;6807;48.682;9.032;2022-08-19T01:36:54;19.10;99.90
13470;DHT22;6807;48.682;9.032;2022-08-19T01:39:23;19.20;99.90
13470;DHT22;6807;48.682;9.032;2022-08-19T01:41:52;19.00;99.90
13470;DHT22;6807;48.682;9.032;2022-08-19T01:44:21;19.00;99.90
13470;DHT22;6807;48.682;9.032;2022-08-19T01:46:50;19.00;99.90
13470;DHT22;6807;48.682;9.032;2022-08-19T01:49:20;18.90;99.90
13470;DHT22;6807;48.682;9.032;2022-08-19T01:51:48;18.90;99.90
13470;DHT22;6807;48.682;9.032;2022-08-19T01:54:17;18.90;99.90
13470;DHT22;6807;48.682;9.032;2022-08-19T01:56:44;18.80;99.90
13470;DHT22;6807;48.682;9.032;2022-08-19T01:59:14;18.80;99.90
13470;DHT22;6807;48.682;9.032;2022-08-19T02:01:42;18.70;99.90
13470;DHT22;6807;48.682;9.032;2022-08-19T02:04:09;18.70;99.90
13470;DHT22;6807;48.682;9.032;2022-08-19T02:06:36;18.70;99.90
13470;DHT22;6807;48.682;9.032;2022-08-19T02:09:04;18.60;99.90
13470;DHT22;6807;48.682;9.032;2022-08-19T02:11:34;18.70;99.90
13470;DHT22;6807;48.682;9.032;2022-08-19T02:14:03;18.60;99.90
13470;DHT22;6807;48.682;9.032;2022-08-19T02:16:32;18.60;99.90
13470;DHT22;6807;48.682;9.032;2022-08-19T02:18:59;18.60;99.90
13470;DHT22;6807;48.682;9.032;2022-08-19T02:21:28;18.60;99.90
13470;DHT22;6807;48.682;9.032;2022-08-19T02:23:55;18.60;99.90
13470;DHT22;6807;48.682;9.032;2022-08-19T02:26:22;18.60;99.90
13470;DHT22;6807;48.682;9.032;2022-08-19T02:28:52;18.60;99.90
13470;DHT22;6807;48.682;9.032;2022-08-19T02:31:20;18.60;99.90
13470;DHT22;6807;48.682;9.032;2022-08-19T02:33:49;18.60;99.90
13470;DHT22;6807;48.682;9.032;2022-08-19T02:36:18;18.60;99.90
13470;DHT22;6807;48.682;9.032;2022-08-19T02:38:45;18.50;99.90
13470;DHT22;6807;48.682;9.032;2022-08-19T02:41:14;18.60;99.90
13470;DHT22;6807;48.682;9.032;2022-08-19T02:43:42;18.50;99.90
13470;DHT22;6807;48.682;9.032;2022-08-19T02:46:14;18.50;99.90
13470;DHT22;6807;48.682;9.032;2022-08-19T02:48:43;18.50;99.90
13470;DHT22;6807;48.682;9.032;2022-08-19T02:51:16;18.50;99.90
13470;DHT22;6807;48.682;9.032;2022-08-19T02:53:43;18.50;99.90
13470;DHT22;6807;48.682;9.032;2022-08-19T02:56:10;18.50;99.90
13470;DHT22;6807;48.682;9.032;2022-08-19T02:58:37;18.50;99.90
13470;DHT22;6807;48.682;9.032;2022-08-19T03:01:04;18.50;99.90
13470;DHT22;6807;48.682;9.032;2022-08-19T03:03:31;18.50;99.90
13470;DHT22;6807;48.682;9.032;2022-08-19T03:06:06;18.50;99.90
13470;DHT22;6807;48.682;9.032;2022-08-19T03:08:36;18.50;99.90
13470;DHT22;6807;48.682;9.032;2022-08-19T03:11:04;18.50;99.90
13470;DHT22;6807;48.682;9.032;2022-08-19T03:13:31;18.40;99.90
13470;DHT22;6807;48.682;9.032;2022-08-19T03:15:58;18.50;99.90
13470;DHT22;6807;48.682;9.032;2022-08-19T03:18:25;18.40;99.90
13470;DHT22;6807;48.682;9.032;2022-08-19T03:20:53;18.40;99.90
13470;DHT22;6807;48.682;9.032;2022-08-19T03:23:20;18.40;99.90
13470;DHT22;6807;48.682;9.032;2022-08-19T03:25:51;18.40;99.90
13470;DHT22;6807;48.682;9.032;2022-08-19T03:28:18;18.40;99.90
13470;DHT22;6807;48.682;9.032;2022-08-19T03:30:56;18.30;99.90
13470;DHT22;6807;48.682;9.032;2022-08-19T03:33:24;18.30;99.90
13470;DHT22;6807;48.682;9.032;2022-08-19T03:36:06;18.30;99.90
13470;DHT22;6807;48.682;9.032;2022-08-19T03:38:35;18.20;99.90
13470;DHT22;6807;48.682;9.032;2022-08-19T03:41:08;18.30;99.90
13470;DHT22;6807;48.682;9.032;2022-08-19T03:43:36;18.30;99.90
13470;DHT22;6807;48.682;9.032;2022-08-19T03:46:06;18.20;99.90
13470;DHT22;6807;48.682;9.032;2022-08-19T03:48:33;18.20;99.90
13470;DHT22;6807;48.682;9.032;2022-08-19T03:51:01;18.20;99.90
13470;DHT22;6807;48.682;9.032;2022-08-19T03:53:30;18.20;99.90
13470;DHT22;6807;48.682;9.032;2022-08-19T03:55:57;18.20;99.90
13470;DHT22;6807;48.682;9.032;2022-08-19T03:58:27;18.20;99.90
13470;DHT22;6807;48.682;9.032;2022-08-19T04:00:54;18.40;99.90
13470;DHT22;6807;48.682;9.032;2022-08-19T04:03:21;18.10;99.90
13470;DHT22;6807;48.682;9.032;2022-08-19T04:05:48;18.10;99.90
13470;DHT22;6807;48.682;9.032;2022-08-19T04:08:15;18.10;99.90
13470;DHT22;6807;48.682;9.032;2022-08-19T04:10:47;18.10;99.90
13470;DHT22;6807;48.682;9.032;2022-08-19T04:13:14;18.10;99.90
13470;DHT22;6807;48.682;9.032;2022-08-19T04:15:44;18.10;99.90
13470;DHT22;6807;48.682;9.032;2022-08-19T04:18:12;18.00;99.90
13470;DHT22;6807;48.682;9.032;2022-08-19T04:20:44;18.10;99.90
13470;DHT22;6807;48.682;9.032;2022-08-19T04:23:11;18.10;99.90
13470;DHT22;6807;48.682;9.032;2022-08-19T04:25:39;18.00;99.90
13470;DHT22;6807;48.682;9.032;2022-08-19T04:28:07;18.00;99.90
13470;DHT22;6807;48.682;9.032;2022-08-19T04:30:40;18.30;99.90
13470;DHT22;6807;48.682;9.032;2022-08-19T04:33:10;18.00;99.90
13470;DHT22;6807;48.682;9.032;2022-08-19T04:35:39;18.00;99.90
13470;DHT22;6807;48.682;9.032;2022-08-19T04:38:07;18.10;99.90
13470;DHT22;6807;48.682;9.032;2022-08-19T04:40:39;18.10;99.90
13470;DHT22;6807;48.682;9.032;2022-08-19T04:43:24;18.10;99.90
13470;DHT22;6807;48.682;9.032;2022-08-19T04:45:51;18.10;99.90
13470;DHT22;6807;48.682;9.032;2022-08-19T04:48:19;18.10;99.90
13470;DHT22;6807;48.682;9.032;2022-08-19T04:50:51;18.10;99.90
13470;DHT22;6807;48.682;9.032;2022-08-19T04:53:23;18.10;99.90
13470;DHT22;6807;48.682;9.032;2022-08-19T04:55:54;18.10;99.90
13470;DHT22;6807;48.682;9.032;2022-08-19T04:58:21;18.50;99.90
13470;DHT22;6807;48.682;9.032;2022-08-19T05:00:49;18.30;99.90
13470;DHT22;6807;48.682;9.032;2022-08-19T05:03:16;18.20;99.90
13470;DHT22;6807;48.682;9.032;2022-08-19T05:05:45;18.20;99.90
13470;DHT22;6807;48.682;9.032;2022-08-19T05:08:16;18.10;99.90
13470;DHT22;6807;48.682;9.032;2022-08-19T05:10:46;18.20;99.90
13470;DHT22;6807;48.682;9.032;2022-08-19T06:25:17;18.70;99.90
13470;DHT22;6807;48.682;9.032;2022-08-19T08:25:51;19.10;99.90
13470;DHT22;6807;48.682;9.032;2022-08-19T10:55:06;21.00;99.90
13470;DHT22;6807;48.682;9.032;2022-08-19T11:20:10;21.90;99.90
13470;DHT22;6807;48.682;9.032;2022-08-19T13:26:08;23.50;99.90
13470;DHT22;6807;48.682;9.032;2022-08-19T14:18:43;24.50;99.90
13470;DHT22;6807;48.682;9.032;2022-08-19T15:30:23;25.80;99.90
13470;DHT22;6807;48.682;9.032;2022-08-19T15:45:12;26.70;99.90
13470;DHT22;6807;48.682;9.032;2022-08-19T17:03:04;23.80;99.90
13470;DHT22;6807;48.682;9.032;2022-08-19T18:02:10;23.30;99.90
13470;DHT22;6807;48.682;9.032;2022-08-19T18:04:38;23.30;99.90
13470;DHT22;6807;48.682;9.032;2022-08-19T21:13:24;20.20;99.90
13470;DHT22;6807;48.682;9.032;2022-08-19T21:18:22;20.10;99.90
13470;DHT22;6807;48.682;9.032;2022-08-19T21:45:28;20.40;99.90
13470;DHT22;6807;48.682;9.032;2022-08-19T22:12:37;20.30;99.90
13470;DHT22;6807;48.682;9.032;2022-08-19T23:02:07;19.80;99.90
